createdAt,value
2023-02-04T00:00:16.639Z,28.67
2023-02-04T00:02:47.164Z,28.40
2023-02-04T00:05:14.519Z,29.27
2023-02-04T00:07:41.730Z,28.58
2023-02-04T00:10:15.309Z,28.77
2023-02-04T00:12:42.636Z,29.33
2023-02-04T00:15:10.867Z,29.13
2023-02-04T00:17:38.298Z,29.38
2023-02-04T00:20:06.066Z,30.23
2023-02-04T00:22:33.115Z,29.63
2023-02-04T00:25:00.158Z,30.30
2023-02-04T00:27:27.311Z,30.02
2023-02-04T00:29:55.060Z,29.98
2023-02-04T00:32:22.332Z,30.58
2023-02-04T00:34:49.762Z,30.15
2023-02-04T00:37:17.035Z,29.95
2023-02-04T00:39:51.565Z,30.63
2023-02-04T00:42:18.931Z,30.90
2023-02-04T00:44:46.261Z,30.05
2023-02-04T00:47:13.751Z,31.65
2023-02-04T00:49:41.685Z,31.30
2023-02-04T00:52:14.846Z,30.00
2023-02-04T00:54:41.973Z,28.92
2023-02-04T00:57:11.620Z,30.80
2023-02-04T00:59:39.177Z,29.67
2023-02-04T01:02:13.581Z,31.38
2023-02-04T01:04:40.723Z,29.85
2023-02-04T01:07:07.686Z,29.77
2023-02-04T01:09:34.842Z,31.17
2023-02-04T01:12:02.027Z,31.27
2023-02-04T01:14:29.165Z,31.27
2023-02-04T01:16:56.189Z,30.58
2023-02-04T01:19:24.386Z,30.70
2023-02-04T01:21:51.408Z,30.27
2023-02-04T01:24:18.536Z,30.30
2023-02-04T01:27:04.414Z,31.27
2023-02-04T01:29:36.154Z,31.15
2023-02-04T01:32:03.169Z,29.80
2023-02-04T01:34:31.785Z,30.25
2023-02-04T01:36:58.867Z,30.92
2023-02-04T01:39:26.007Z,29.65
2023-02-04T01:41:53.123Z,31.00
2023-02-04T01:44:20.131Z,31.80
2023-02-04T01:46:47.145Z,30.63
2023-02-04T01:49:14.437Z,29.23
2023-02-04T01:51:41.886Z,30.52
2023-02-04T01:54:12.495Z,31.05
2023-02-04T01:56:40.938Z,28.38
2023-02-04T01:59:15.934Z,30.00
2023-02-04T02:01:44.341Z,29.70
2023-02-04T02:04:17.638Z,30.67
2023-02-04T02:06:52.474Z,27.83
2023-02-04T02:09:19.762Z,27.88
2023-02-04T02:11:47.071Z,28.77
2023-02-04T02:14:14.421Z,30.02
2023-02-04T02:16:41.936Z,29.70
2023-02-04T02:19:14.898Z,29.40
2023-02-04T02:21:53.200Z,29.63
2023-02-04T02:24:27.362Z,28.95
2023-02-04T02:26:56.468Z,28.35
2023-02-04T02:29:25.866Z,28.00
2023-02-04T02:31:54.571Z,29.25
2023-02-04T02:34:21.612Z,28.58
2023-02-04T02:36:48.630Z,28.48
2023-02-04T02:39:15.698Z,27.58
2023-02-04T02:41:42.740Z,29.25
2023-02-04T02:44:11.552Z,28.80
2023-02-04T02:46:43.662Z,28.42
2023-02-04T02:49:17.497Z,28.52
2023-02-04T02:51:45.572Z,27.92
2023-02-04T02:54:31.119Z,28.33
2023-02-04T02:57:01.557Z,28.65
2023-02-04T02:59:28.605Z,28.42
2023-02-04T03:01:59.640Z,29.20
2023-02-04T03:04:31.298Z,28.35
2023-02-04T03:06:58.732Z,28.48
2023-02-04T03:09:27.070Z,28.90
2023-02-04T03:11:54.488Z,28.75
2023-02-04T03:14:24.305Z,27.33
2023-02-04T03:16:53.468Z,28.30
2023-02-04T03:19:21.302Z,28.00
2023-02-04T03:21:49.741Z,28.35
2023-02-04T03:24:16.961Z,26.90
2023-02-04T03:26:44.228Z,27.92
2023-02-04T03:29:12.718Z,27.35
2023-02-04T03:31:39.996Z,27.67
2023-02-04T03:34:07.826Z,27.10
2023-02-04T03:36:34.840Z,27.27
2023-02-04T03:39:02.031Z,27.45
2023-02-04T03:41:30.356Z,26.70
2023-02-04T03:43:57.423Z,27.88
2023-02-04T03:46:26.021Z,27.00
2023-02-04T03:48:53.131Z,26.67
2023-02-04T03:51:20.147Z,27.42
2023-02-04T03:53:47.156Z,27.08
2023-02-04T03:56:14.352Z,27.00
2023-02-04T03:58:44.438Z,27.85
2023-02-04T04:01:11.503Z,26.90
2023-02-04T04:03:38.591Z,26.55
2023-02-04T04:06:08.760Z,26.73
2023-02-04T04:08:36.329Z,26.40
2023-02-04T04:11:03.713Z,26.45
2023-02-04T04:13:30.778Z,27.60
2023-02-04T04:15:57.995Z,25.88
2023-02-04T04:18:24.994Z,26.02
2023-02-04T04:20:51.985Z,26.58
2023-02-04T04:23:18.979Z,26.67
2023-02-04T04:25:46.016Z,25.67
2023-02-04T04:28:13.196Z,25.95
2023-02-04T04:30:40.314Z,25.65
2023-02-04T04:33:07.409Z,25.20
2023-02-04T04:35:34.859Z,25.90
2023-02-04T04:38:02.766Z,25.55
2023-02-04T04:40:30.080Z,25.92
2023-02-04T04:42:57.560Z,25.98
2023-02-04T04:45:24.518Z,25.88
2023-02-04T04:47:51.593Z,24.83
2023-02-04T04:50:18.716Z,24.77
2023-02-04T04:52:45.765Z,24.95
2023-02-04T04:55:12.819Z,25.00
2023-02-04T04:57:39.916Z,25.20
2023-02-04T05:00:08.391Z,24.40
2023-02-04T05:02:35.390Z,24.65
2023-02-04T05:05:02.508Z,24.42
2023-02-04T05:07:29.511Z,24.35
2023-02-04T05:09:56.487Z,25.00
2023-02-04T05:12:23.574Z,25.15
2023-02-04T05:14:50.673Z,24.92
2023-02-04T05:17:18.177Z,24.40
2023-02-04T05:19:45.459Z,24.65
2023-02-04T05:22:12.924Z,25.38
2023-02-04T05:24:39.916Z,24.58
2023-02-04T05:27:06.950Z,24.98
2023-02-04T05:29:34.012Z,23.98
2023-02-04T05:32:01.086Z,24.85
2023-02-04T05:34:28.166Z,24.05
2023-02-04T05:36:55.236Z,24.77
2023-02-04T05:39:22.679Z,23.65
2023-02-04T05:41:49.884Z,25.05
2023-02-04T05:44:16.938Z,23.85
2023-02-04T05:47:28.531Z,23.40
2023-02-04T05:50:16.440Z,22.98
2023-02-04T05:53:26.538Z,24.35
2023-02-04T05:59:08.339Z,24.70
2023-02-04T06:02:51.310Z,22.77
2023-02-04T06:12:33.529Z,23.38
2023-02-04T06:15:44.962Z,23.65
2023-02-04T06:21:39.132Z,22.42
2023-02-04T06:24:34.193Z,23.55
2023-02-04T06:27:40.076Z,23.67
2023-02-04T06:30:39.433Z,23.33
2023-02-04T06:40:12.746Z,22.42
2023-02-04T06:57:35.153Z,22.67
2023-02-04T07:00:02.348Z,22.27
2023-02-04T07:02:29.414Z,23.52
2023-02-04T07:05:28.420Z,21.77
2023-02-04T07:07:55.521Z,22.15
2023-02-04T07:10:22.467Z,22.48
2023-02-04T07:12:49.554Z,22.75
2023-02-04T07:15:17.138Z,22.23
2023-02-04T07:17:44.294Z,22.20
2023-02-04T07:20:12.904Z,22.42
2023-02-04T07:22:39.937Z,23.00
2023-02-04T07:25:07.316Z,23.10
2023-02-04T07:27:34.471Z,22.30
2023-02-04T07:30:01.546Z,22.23
2023-02-04T07:32:32.863Z,22.88
2023-02-04T07:35:00.931Z,22.55
2023-02-04T07:38:10.083Z,22.58
2023-02-04T07:41:05.112Z,22.33
2023-02-04T07:50:18.518Z,22.73
2023-02-04T07:53:08.987Z,23.23
2023-02-04T07:56:24.658Z,23.15
2023-02-04T08:05:38.045Z,23.17
2023-02-04T08:08:20.188Z,23.48
2023-02-04T08:11:21.321Z,23.42
2023-02-04T08:13:52.035Z,23.52
2023-02-04T08:16:19.226Z,22.52
2023-02-04T08:18:46.231Z,24.13
2023-02-04T08:21:13.190Z,23.52
2023-02-04T08:23:41.930Z,22.77
2023-02-04T08:26:12.428Z,22.88
2023-02-04T08:28:39.604Z,23.05
2023-02-04T08:31:07.460Z,23.08
2023-02-04T08:33:34.617Z,23.23
2023-02-04T08:36:01.569Z,24.38
2023-02-04T08:38:29.168Z,22.73
2023-02-04T08:40:56.520Z,23.42
2023-02-04T08:43:23.649Z,23.88
2023-02-04T08:45:50.602Z,22.75
2023-02-04T08:48:17.674Z,22.10
2023-02-04T08:50:44.614Z,23.23
2023-02-04T08:53:12.160Z,23.40
2023-02-04T08:55:39.413Z,23.77
2023-02-04T08:58:06.456Z,23.73
2023-02-04T09:00:33.737Z,23.15
2023-02-04T09:03:00.983Z,24.20
2023-02-04T09:05:28.032Z,23.58
2023-02-04T09:07:55.018Z,24.30
2023-02-04T09:10:21.957Z,24.75
2023-02-04T09:12:49.123Z,24.33
2023-02-04T09:15:16.145Z,23.42
2023-02-04T09:17:44.069Z,23.10
2023-02-04T09:20:11.683Z,24.48
2023-02-04T09:22:38.903Z,24.42
2023-02-04T09:25:06.186Z,23.92
2023-02-04T09:27:33.129Z,25.00
2023-02-04T09:30:00.307Z,25.15
2023-02-04T09:32:27.280Z,24.00
2023-02-04T09:34:54.200Z,25.33
2023-02-04T09:37:21.182Z,24.83
2023-02-04T09:39:48.255Z,24.75
2023-02-04T09:42:16.086Z,25.30
2023-02-04T09:44:45.414Z,24.95
2023-02-04T09:47:15.730Z,24.40
2023-02-04T09:49:47.483Z,24.45
2023-02-04T09:54:43.624Z,24.27
2023-02-04T09:57:17.381Z,24.23
2023-02-04T09:59:45.210Z,25.50
2023-02-04T10:02:22.827Z,24.25
2023-02-04T10:04:51.899Z,24.55
2023-02-04T10:07:24.250Z,25.80
2023-02-04T10:10:00.821Z,25.70
2023-02-04T10:12:28.264Z,24.00
2023-02-04T10:14:55.509Z,24.92
2023-02-04T10:17:27.483Z,24.50
2023-02-04T10:19:54.436Z,25.00
2023-02-04T10:22:22.809Z,25.92
2023-02-04T10:30:53.401Z,25.20
2023-02-04T10:33:27.289Z,25.55
2023-02-04T10:35:56.982Z,25.58
2023-02-04T10:38:24.900Z,25.15
2023-02-04T12:16:18.649Z,27.58
2023-02-04T12:19:00.742Z,27.67
2023-02-04T12:52:23.767Z,26.25
2023-02-04T12:55:36.842Z,27.40
2023-02-04T12:58:04.245Z,25.38
2023-02-04T13:00:31.516Z,26.63
2023-02-04T13:03:05.456Z,26.05
2023-02-04T13:05:34.871Z,26.05
2023-02-04T13:11:05.476Z,25.90
2023-02-04T13:13:32.536Z,26.90
2023-02-04T13:15:59.698Z,26.35
2023-02-04T13:18:27.206Z,25.70
2023-02-04T13:27:11.451Z,25.92
2023-02-04T13:36:20.423Z,25.10
2023-02-04T15:17:16.652Z,20.85
2023-02-04T15:19:49.108Z,23.35
2023-02-04T15:22:16.414Z,23.48
2023-02-04T15:27:32.606Z,24.00
2023-02-04T15:30:11.159Z,25.35
2023-02-04T16:19:03.102Z,33.38
2023-02-04T18:18:57.560Z,21.45
2023-02-04T18:36:36.900Z,18.45
2023-02-04T18:39:25.669Z,17.30
2023-02-04T18:42:07.562Z,16.95
2023-02-04T18:44:38.285Z,17.33
2023-02-04T18:47:32.602Z,17.20
2023-02-04T18:50:16.265Z,16.48
2023-02-04T18:52:44.331Z,15.65
2023-02-04T18:55:27.733Z,15.75
2023-02-04T19:06:07.275Z,13.90
2023-02-04T19:08:44.514Z,14.40
2023-02-04T19:11:55.088Z,14.68
2023-02-04T19:14:38.892Z,14.32
2023-02-04T19:17:14.587Z,14.00
2023-02-04T19:19:46.301Z,13.20
2023-02-04T19:22:47.497Z,12.85
2023-02-04T19:26:23.261Z,12.82
2023-02-04T19:29:16.558Z,12.52
2023-02-04T19:31:46.601Z,12.35
2023-02-04T19:34:38.370Z,12.30
2023-02-04T19:37:27.439Z,11.25
2023-02-04T19:39:55.807Z,11.30
2023-02-04T19:42:34.737Z,11.15
2023-02-04T20:28:40.099Z,8.10
2023-02-04T20:31:28.738Z,8.27
2023-02-04T20:33:59.588Z,7.82
2023-02-04T20:36:26.899Z,8.13
2023-02-04T20:39:17.315Z,8.10
2023-02-04T20:41:44.373Z,8.63
2023-02-04T20:44:40.039Z,7.82
2023-02-04T20:47:18.208Z,7.72
2023-02-04T20:49:55.282Z,7.60
2023-02-04T20:52:40.837Z,8.40
2023-02-04T21:21:28.889Z,7.43
2023-02-04T21:23:56.150Z,7.10
2023-02-04T21:26:23.331Z,7.30
2023-02-04T21:28:50.552Z,8.02
2023-02-04T21:31:44.933Z,7.40
2023-02-04T21:34:12.495Z,7.20
2023-02-04T21:36:53.222Z,7.60
2023-02-04T21:39:23.893Z,7.43
2023-02-04T21:42:10.115Z,7.10
2023-02-04T21:44:38.201Z,7.40
2023-02-04T22:05:48.087Z,6.78
2023-02-04T22:31:43.490Z,5.65
2023-02-04T22:59:00.106Z,4.25
2023-02-04T23:13:32.375Z,4.15
2023-02-04T23:16:00.891Z,4.07
2023-02-04T23:33:30.652Z,3.40
2023-02-04T23:35:59.104Z,3.80
2023-02-04T23:41:29.483Z,3.30
2023-02-04T23:43:56.559Z,3.70
2023-02-04T23:46:23.586Z,3.80
2023-02-04T23:48:50.803Z,3.28
2023-02-04T23:51:17.838Z,3.30
2023-02-04T23:53:44.906Z,3.80
2023-02-04T23:56:12.132Z,3.47
2023-02-04T23:58:39.203Z,3.40
